createdAt,value
2023-01-04T00:00:27.366Z,100.00
2023-01-04T00:02:59.667Z,100.00
2023-01-04T00:05:28.546Z,100.00
2023-01-04T00:08:05.252Z,100.00
2023-01-04T00:10:33.859Z,100.00
2023-01-04T00:13:02.504Z,100.00
2023-01-04T00:15:31.352Z,100.00
2023-01-04T00:18:00.613Z,100.00
2023-01-04T00:20:29.730Z,100.00
2023-01-04T00:22:59.168Z,100.00
2023-01-04T00:25:29.391Z,100.00
2023-01-04T00:27:59.259Z,100.00
2023-01-04T00:30:28.192Z,100.00
2023-01-04T00:32:56.939Z,100.00
2023-01-04T00:35:44.739Z,100.00
2023-01-04T00:38:14.318Z,100.00
2023-01-04T00:40:44.294Z,100.00
2023-01-04T00:43:13.255Z,100.00
2023-01-04T00:45:41.869Z,100.00
2023-01-04T00:48:10.544Z,100.00
2023-01-04T00:50:39.049Z,100.00
2023-01-04T00:53:07.562Z,100.00
2023-01-04T00:55:36.277Z,100.00
2023-01-04T00:58:06.290Z,100.00
2023-01-04T01:00:35.024Z,100.00
2023-01-04T01:03:04.523Z,100.00
2023-01-04T01:05:34.729Z,100.00
2023-01-04T01:08:24.883Z,100.00
2023-01-04T01:10:53.832Z,100.00
2023-01-04T01:13:24.647Z,100.00
2023-01-04T01:15:53.699Z,100.00
2023-01-04T01:18:35.864Z,100.00
2023-01-04T01:21:06.693Z,100.00
2023-01-04T01:23:35.620Z,100.00
2023-01-04T01:26:05.263Z,100.00
2023-01-04T01:28:35.545Z,100.00
2023-01-04T01:31:08.867Z,100.00
2023-01-04T01:33:42.608Z,100.00
2023-01-04T01:36:11.930Z,100.00
2023-01-04T01:38:40.595Z,100.00
2023-01-04T01:41:10.119Z,100.00
2023-01-04T01:43:52.061Z,100.00
2023-01-04T01:46:23.891Z,100.00
2023-01-04T01:48:55.089Z,100.00
2023-01-04T01:51:24.155Z,100.00
2023-01-04T01:53:56.681Z,100.00
2023-01-04T01:56:25.656Z,100.00
2023-01-04T01:58:57.230Z,100.00
2023-01-04T02:01:26.015Z,100.00
2023-01-04T02:03:54.802Z,100.00
2023-01-04T02:06:27.261Z,100.00
2023-01-04T02:08:56.231Z,100.00
2023-01-04T02:11:33.129Z,100.00
2023-01-04T02:14:21.936Z,100.00
2023-01-04T02:17:08.650Z,100.00
2023-01-04T02:20:04.769Z,100.00
2023-01-04T02:23:09.274Z,100.00
2023-01-04T02:26:10.906Z,100.00
2023-01-04T02:29:06.014Z,100.00
2023-01-04T02:31:39.152Z,100.00
2023-01-04T02:34:13.555Z,100.00
2023-01-04T02:36:45.981Z,100.00
2023-01-04T02:39:21.057Z,100.00
2023-01-04T02:41:52.839Z,100.00
2023-01-04T02:44:43.550Z,100.00
2023-01-04T02:47:44.027Z,100.00
2023-01-04T02:50:32.370Z,100.00
2023-01-04T02:53:03.357Z,100.00
2023-01-04T02:55:43.527Z,100.00
2023-01-04T02:58:18.154Z,100.00
2023-01-04T03:01:12.562Z,100.00
2023-01-04T03:04:07.942Z,100.00
2023-01-04T03:06:45.212Z,100.00
2023-01-04T03:09:49.085Z,100.00
2023-01-04T03:12:32.535Z,100.00
2023-01-04T03:15:05.208Z,100.00
2023-01-04T03:17:37.235Z,100.00
2023-01-04T03:20:09.311Z,100.00
2023-01-04T03:23:02.539Z,100.00
2023-01-04T03:25:52.858Z,100.00
2023-01-04T03:32:44.372Z,100.00
2023-01-04T03:35:28.430Z,100.00
2023-01-04T03:38:14.910Z,100.00
2023-01-04T03:41:08.005Z,100.00
2023-01-04T03:43:57.762Z,100.00
2023-01-04T03:46:47.835Z,100.00
2023-01-04T03:49:20.249Z,100.00
2023-01-04T03:51:51.259Z,100.00
2023-01-04T03:54:22.698Z,100.00
2023-01-04T03:56:51.840Z,100.00
2023-01-04T03:59:22.954Z,100.00
2023-01-04T04:02:19.383Z,100.00
2023-01-04T04:05:06.071Z,100.00
2023-01-04T04:07:53.798Z,100.00
2023-01-04T04:10:23.005Z,100.00
2023-01-04T04:12:52.522Z,100.00
2023-01-04T04:15:21.605Z,100.00
2023-01-04T04:17:50.648Z,100.00
2023-01-04T04:20:19.402Z,100.00
2023-01-04T04:22:59.097Z,100.00
2023-01-04T04:25:27.699Z,100.00
2023-01-04T04:27:56.474Z,100.00
2023-01-04T04:30:25.549Z,100.00
2023-01-04T04:32:54.099Z,100.00
2023-01-04T04:35:22.519Z,100.00
2023-01-04T04:37:52.311Z,100.00
2023-01-04T04:40:34.636Z,100.00
2023-01-04T04:43:03.245Z,100.00
2023-01-04T04:45:31.791Z,100.00
2023-01-04T04:48:17.774Z,100.00
2023-01-04T04:50:46.447Z,100.00
2023-01-04T04:53:16.559Z,100.00
2023-01-04T04:55:45.365Z,100.00
2023-01-04T04:58:29.710Z,100.00
2023-01-04T05:00:58.621Z,100.00
2023-01-04T05:03:27.468Z,100.00
2023-01-04T05:05:55.881Z,100.00
2023-01-04T05:08:26.287Z,100.00
2023-01-04T05:10:55.108Z,100.00
2023-01-04T05:13:22.806Z,100.00
2023-01-04T05:15:53.172Z,100.00
2023-01-04T05:18:23.607Z,100.00
2023-01-04T05:20:52.557Z,100.00
2023-01-04T05:23:22.672Z,100.00
2023-01-04T05:25:55.315Z,100.00
2023-01-04T05:28:24.029Z,100.00
2023-01-04T05:30:52.078Z,100.00
2023-01-04T05:33:21.698Z,100.00
2023-01-04T05:35:50.497Z,100.00
2023-01-04T05:38:19.591Z,100.00
2023-01-04T05:40:48.956Z,100.00
2023-01-04T05:43:20.342Z,100.00
2023-01-04T05:45:49.884Z,100.00
2023-01-04T05:48:43.085Z,100.00
2023-01-04T05:51:11.422Z,100.00
2023-01-04T05:53:40.352Z,100.00
2023-01-04T05:56:09.718Z,100.00
2023-01-04T05:58:39.847Z,100.00
2023-01-04T06:01:10.344Z,100.00
2023-01-04T06:03:39.206Z,100.00
2023-01-04T06:06:08.130Z,100.00
2023-01-04T06:08:36.939Z,100.00
2023-01-04T06:11:05.601Z,100.00
2023-01-04T06:13:34.248Z,100.00
2023-01-04T06:16:04.495Z,100.00
2023-01-04T06:18:33.139Z,100.00
2023-01-04T06:21:01.655Z,100.00
2023-01-04T06:23:30.584Z,100.00
2023-01-04T06:25:59.176Z,100.00
2023-01-04T06:28:28.123Z,100.00
2023-01-04T06:30:56.949Z,100.00
2023-01-04T06:33:27.137Z,100.00
2023-01-04T06:35:56.955Z,100.00
2023-01-04T06:38:25.744Z,100.00
2023-01-04T06:40:54.280Z,100.00
2023-01-04T06:43:22.753Z,100.00
2023-01-04T06:45:51.673Z,100.00
2023-01-04T06:48:20.488Z,100.00
2023-01-04T06:50:50.490Z,100.00
2023-01-04T06:53:18.966Z,100.00
2023-01-04T06:55:47.979Z,100.00
2023-01-04T06:58:17.143Z,100.00
2023-01-04T07:00:46.552Z,100.00
2023-01-04T07:03:16.319Z,100.00
2023-01-04T07:05:45.244Z,100.00
2023-01-04T07:08:16.532Z,100.00
2023-01-04T07:10:45.570Z,100.00
2023-01-04T07:13:14.205Z,100.00
2023-01-04T07:19:50.540Z,100.00
2023-01-04T07:22:19.265Z,100.00
2023-01-04T07:24:50.085Z,100.00
2023-01-04T07:27:19.189Z,100.00
2023-01-04T07:29:47.814Z,100.00
2023-01-04T07:32:17.761Z,100.00
2023-01-04T07:34:47.700Z,100.00
2023-01-04T07:37:17.538Z,100.00
2023-01-04T07:39:46.332Z,100.00
2023-01-04T07:42:16.851Z,100.00
2023-01-04T07:44:46.229Z,100.00
2023-01-04T07:47:15.375Z,100.00
2023-01-04T07:49:44.116Z,100.00
2023-01-04T07:52:12.705Z,100.00
2023-01-04T07:54:41.704Z,100.00
2023-01-04T07:57:10.545Z,100.00
2023-01-04T07:59:40.698Z,100.00
2023-01-04T08:02:11.696Z,97.05
2023-01-04T08:04:40.369Z,88.61
2023-01-04T08:07:08.790Z,79.76
2023-01-04T08:09:37.690Z,73.80
2023-01-04T08:12:07.055Z,68.29
2023-01-04T08:14:35.606Z,66.67
2023-01-04T08:17:05.477Z,63.29
2023-01-04T08:19:34.079Z,61.16
2023-01-04T08:22:02.793Z,58.65
2023-01-04T08:24:31.911Z,57.06
2023-01-04T08:27:00.623Z,58.52
2023-01-04T08:29:34.526Z,56.72
2023-01-04T08:32:03.701Z,54.21
2023-01-04T08:34:34.120Z,52.21
2023-01-04T08:37:03.195Z,52.15
2023-01-04T08:39:35.622Z,51.92
2023-01-04T08:42:18.803Z,51.48
2023-01-04T08:44:51.868Z,49.42
2023-01-04T08:47:22.673Z,49.44
2023-01-04T08:49:52.600Z,49.45
2023-01-04T08:52:29.359Z,49.44
2023-01-04T08:55:10.114Z,50.25
2023-01-04T08:57:46.505Z,47.50
2023-01-04T09:00:17.399Z,46.26
2023-01-04T09:02:46.406Z,46.04
2023-01-04T09:05:22.337Z,44.31
2023-01-04T09:07:51.774Z,43.64
2023-01-04T09:10:20.938Z,44.71
2023-01-04T09:12:49.478Z,42.96
2023-01-04T09:15:18.732Z,43.55
2023-01-04T09:18:20.722Z,44.36
2023-01-04T09:20:38.636Z,44.90
2023-01-04T09:23:07.072Z,45.52
2023-01-04T09:25:35.769Z,44.83
2023-01-04T09:28:03.993Z,45.17
2023-01-04T09:30:37.246Z,49.56
2023-01-04T09:33:06.060Z,53.58
2023-01-04T09:35:35.592Z,58.05
2023-01-04T09:38:05.800Z,55.64
2023-01-04T09:40:41.864Z,54.20
2023-01-04T09:43:20.187Z,53.58
2023-01-04T09:45:54.305Z,48.83
2023-01-04T09:51:16.560Z,48.91
2023-01-04T09:53:48.355Z,46.36
2023-01-04T09:56:23.489Z,43.01
2023-01-04T09:58:52.886Z,41.56
2023-01-04T10:01:24.713Z,42.07
2023-01-04T10:04:00.881Z,41.21
2023-01-04T10:06:29.524Z,40.54
2023-01-04T10:09:04.432Z,40.06
2023-01-04T10:11:47.491Z,40.36
2023-01-04T10:14:27.548Z,38.12
2023-01-04T10:17:17.758Z,39.93
2023-01-04T10:21:18.782Z,38.60
2023-01-04T10:22:57.209Z,40.59
2023-01-04T10:25:31.573Z,41.32
2023-01-04T10:28:12.890Z,40.97
2023-01-04T10:31:55.239Z,44.95
2023-01-04T10:34:26.477Z,42.41
2023-01-04T10:36:59.024Z,44.18
2023-01-04T10:39:32.967Z,42.38
2023-01-04T10:42:12.532Z,41.30
2023-01-04T10:44:48.520Z,39.49
2023-01-04T10:47:20.969Z,44.01
2023-01-04T10:49:53.916Z,45.31
2023-01-04T10:52:25.177Z,43.74
2023-01-04T10:54:56.775Z,43.01
2023-01-04T10:57:28.771Z,41.18
2023-01-04T11:00:04.363Z,44.52
2023-01-04T11:02:38.032Z,44.44
2023-01-04T11:05:13.595Z,44.12
2023-01-04T11:07:43.668Z,42.81
2023-01-04T11:10:15.944Z,41.38
2023-01-04T11:12:48.831Z,41.68
2023-01-04T11:15:17.742Z,39.76
2023-01-04T11:17:49.469Z,40.77
2023-01-04T11:20:18.177Z,41.80
2023-01-04T11:22:54.495Z,44.00
2023-01-04T11:25:35.023Z,45.76
2023-01-04T11:28:12.353Z,53.96
2023-01-04T11:30:53.958Z,58.63
2023-01-04T11:33:24.001Z,60.28
2023-01-04T11:35:53.662Z,64.28
2023-01-04T11:38:31.635Z,67.07
2023-01-04T11:41:02.625Z,73.92
2023-01-04T11:43:33.627Z,76.66
2023-01-04T11:46:04.969Z,81.80
2023-01-04T11:48:39.925Z,83.02
2023-01-04T11:51:19.006Z,84.08
2023-01-04T11:54:21.330Z,85.06
2023-01-04T11:57:02.805Z,86.42
2023-01-04T11:59:36.238Z,86.33
2023-01-04T12:05:26.207Z,84.78
2023-01-04T12:07:58.475Z,84.04
2023-01-04T12:10:28.883Z,83.72
2023-01-04T12:12:58.884Z,84.07
2023-01-04T12:15:39.673Z,83.54
2023-01-04T12:18:12.480Z,83.04
2023-01-04T12:20:41.684Z,83.46
2023-01-04T12:23:10.878Z,82.39
2023-01-04T12:25:42.086Z,83.05
2023-01-04T12:28:42.800Z,79.92
2023-01-04T12:31:31.864Z,76.63
2023-01-04T12:34:02.093Z,77.46
2023-01-04T12:36:58.649Z,79.87
2023-01-04T12:39:43.999Z,80.07
2023-01-04T12:42:15.966Z,76.76
2023-01-04T12:45:05.386Z,74.47
2023-01-04T12:48:03.378Z,75.51
2023-01-04T12:50:32.995Z,76.49
2023-01-04T12:53:30.063Z,78.58
2023-01-04T12:55:56.195Z,78.74
2023-01-04T13:02:18.577Z,80.14
2023-01-04T13:04:49.567Z,79.00
2023-01-04T13:07:22.065Z,78.97
2023-01-04T13:09:56.653Z,80.41
2023-01-04T13:12:45.199Z,82.49
2023-01-04T13:15:22.044Z,81.49
2023-01-04T13:17:50.697Z,80.24
2023-01-04T13:20:23.070Z,81.01
2023-01-04T13:22:54.789Z,82.34
2023-01-04T13:25:26.690Z,82.84
2023-01-04T13:28:00.475Z,83.93
2023-01-04T13:30:35.519Z,85.51
2023-01-04T13:33:28.572Z,84.02
2023-01-04T13:36:05.066Z,82.58
2023-01-04T13:38:35.423Z,82.64
2023-01-04T13:41:05.940Z,80.89
2023-01-04T13:43:52.860Z,81.50
2023-01-04T13:46:22.309Z,80.32
2023-01-04T13:48:53.738Z,81.39
2023-01-04T13:51:36.276Z,80.19
2023-01-04T13:54:07.355Z,80.99
2023-01-04T13:56:37.011Z,80.47
2023-01-04T13:59:05.446Z,80.71
2023-01-04T14:01:41.947Z,81.12
2023-01-04T14:04:34.182Z,81.55
2023-01-04T14:07:04.333Z,78.51
2023-01-04T14:09:44.638Z,76.73
2023-01-04T14:12:18.407Z,78.87
2023-01-04T14:14:51.534Z,79.16
2023-01-04T14:17:33.785Z,80.33
2023-01-04T14:20:02.754Z,79.79
2023-01-04T14:22:44.265Z,80.11
2023-01-04T14:25:45.229Z,80.89
2023-01-04T14:28:33.501Z,80.56
2023-01-04T14:31:33.827Z,83.10
2023-01-04T14:34:07.455Z,83.32
2023-01-04T14:36:37.525Z,83.08
2023-01-04T14:39:20.688Z,82.38
2023-01-04T14:42:00.083Z,83.14
2023-01-04T14:44:33.840Z,84.74
2023-01-04T14:47:06.652Z,84.88
2023-01-04T14:49:35.709Z,86.30
2023-01-04T14:52:10.321Z,88.04
2023-01-04T14:54:40.564Z,90.60
2023-01-04T14:57:11.368Z,90.84
2023-01-04T14:59:40.018Z,91.37
2023-01-04T15:02:34.240Z,92.46
2023-01-04T15:05:02.748Z,92.89
2023-01-04T15:07:35.771Z,92.04
2023-01-04T15:10:06.886Z,92.47
2023-01-04T15:12:35.775Z,93.47
2023-01-04T15:15:05.347Z,95.04
2023-01-04T15:17:33.882Z,96.28
2023-01-04T15:20:02.360Z,97.84
2023-01-04T15:22:31.051Z,98.89
2023-01-04T15:25:01.635Z,100.00
2023-01-04T15:27:38.366Z,100.00
2023-01-04T15:30:11.791Z,99.28
2023-01-04T15:32:40.730Z,99.91
2023-01-04T15:35:09.712Z,99.69
2023-01-04T15:37:38.175Z,100.00
2023-01-04T15:40:08.102Z,100.00
2023-01-04T15:42:56.217Z,100.00
2023-01-04T15:45:24.532Z,100.00
2023-01-04T15:47:53.404Z,100.00
2023-01-04T15:50:22.457Z,100.00
2023-01-04T15:52:50.749Z,100.00
2023-01-04T15:55:19.409Z,99.17
2023-01-04T15:57:49.534Z,99.51
2023-01-04T16:00:22.181Z,99.36
2023-01-04T16:02:50.994Z,98.91
2023-01-04T16:05:21.090Z,97.63
2023-01-04T16:07:49.846Z,97.71
2023-01-04T16:10:19.269Z,98.38
2023-01-04T16:12:56.457Z,97.04
2023-01-04T16:15:34.860Z,95.29
2023-01-04T16:18:03.470Z,95.52
2023-01-04T16:20:32.510Z,94.93
2023-01-04T16:23:01.052Z,94.05
2023-01-04T16:25:46.864Z,94.26
2023-01-04T16:28:17.352Z,90.59
2023-01-04T16:30:47.655Z,91.23
2023-01-04T16:33:16.392Z,88.93
2023-01-04T16:35:45.132Z,88.80
2023-01-04T16:38:13.569Z,87.82
2023-01-04T16:40:42.188Z,88.25
2023-01-04T16:43:11.023Z,88.24
2023-01-04T16:45:44.830Z,89.35
2023-01-04T16:48:18.279Z,89.62
2023-01-04T16:50:47.078Z,90.54
2023-01-04T16:53:15.607Z,90.42
2023-01-04T16:55:44.264Z,90.93
2023-01-04T16:58:12.807Z,90.75
2023-01-04T17:00:42.836Z,90.82
2023-01-04T17:03:11.331Z,89.82
2023-01-04T17:05:41.164Z,89.30
2023-01-04T17:08:35.185Z,89.56
2023-01-04T17:14:33.869Z,90.44
2023-01-04T17:17:06.599Z,89.33
2023-01-04T17:19:35.615Z,90.44
2023-01-04T17:22:04.179Z,89.14
2023-01-04T17:24:33.088Z,89.42
2023-01-04T17:27:03.063Z,89.07
2023-01-04T17:29:31.854Z,87.46
2023-01-04T17:32:00.770Z,88.28
2023-01-04T17:34:31.779Z,89.25
2023-01-04T17:37:02.910Z,89.29
2023-01-04T17:39:33.108Z,89.31
2023-01-04T17:42:01.787Z,89.99
2023-01-04T17:44:30.955Z,90.14
2023-01-04T17:47:00.133Z,88.34
2023-01-04T17:49:32.383Z,89.04
2023-01-04T17:52:01.454Z,88.47
2023-01-04T17:54:31.688Z,88.86
2023-01-04T17:57:00.566Z,91.36
2023-01-04T17:59:29.709Z,90.07
2023-01-04T18:01:58.783Z,89.24
2023-01-04T18:04:31.165Z,88.94
2023-01-04T18:07:02.153Z,86.25
2023-01-04T18:09:30.897Z,86.43
2023-01-04T18:11:59.737Z,86.42
2023-01-04T18:14:28.990Z,81.68
2023-01-04T18:17:01.555Z,81.71
2023-01-04T18:19:31.854Z,81.40
2023-01-04T18:22:02.095Z,82.41
2023-01-04T18:24:36.774Z,82.09
2023-01-04T18:27:32.491Z,81.28
2023-01-04T18:30:01.143Z,80.87
2023-01-04T18:32:29.923Z,81.70
2023-01-04T18:34:58.444Z,81.13
2023-01-04T18:37:28.675Z,81.69
2023-01-04T18:39:57.079Z,82.04
2023-01-04T18:42:26.140Z,82.43
2023-01-04T18:44:55.053Z,81.12
2023-01-04T18:47:26.871Z,81.56
2023-01-04T18:49:55.818Z,80.31
2023-01-04T18:52:24.649Z,78.94
2023-01-04T18:54:56.818Z,79.37
2023-01-04T18:57:27.769Z,80.05
2023-01-04T18:59:56.821Z,78.71
2023-01-04T19:02:25.818Z,79.35
2023-01-04T19:04:54.580Z,78.12
2023-01-04T19:07:32.316Z,78.93
2023-01-04T19:10:02.519Z,78.34
2023-01-04T19:12:30.989Z,76.70
2023-01-04T19:15:00.197Z,77.63
2023-01-04T19:17:31.662Z,78.75
2023-01-04T19:20:00.313Z,79.08
2023-01-04T19:22:28.848Z,80.42
2023-01-04T19:24:57.688Z,81.40
2023-01-04T19:27:27.844Z,80.94
2023-01-04T19:29:56.745Z,80.81
2023-01-04T19:32:29.972Z,81.43
2023-01-04T19:35:01.971Z,82.21
2023-01-04T19:37:30.985Z,83.18
2023-01-04T19:39:59.960Z,83.27
2023-01-04T19:42:32.456Z,85.01
2023-01-04T19:45:01.197Z,85.23
2023-01-04T19:47:31.230Z,85.88
2023-01-04T19:50:00.268Z,86.17
2023-01-04T19:52:31.071Z,86.98
2023-01-04T19:54:59.723Z,86.61
2023-01-04T19:57:28.778Z,87.34
2023-01-04T20:00:01.982Z,86.65
2023-01-04T20:02:31.114Z,87.12
2023-01-04T20:04:59.833Z,86.98
2023-01-04T20:07:31.082Z,86.94
2023-01-04T20:10:00.049Z,86.90
2023-01-04T20:12:28.814Z,86.91
2023-01-04T20:14:57.693Z,86.48
2023-01-04T20:17:31.996Z,86.57
2023-01-04T20:20:00.886Z,85.94
2023-01-04T20:22:32.550Z,86.04
2023-01-04T20:25:01.331Z,87.39
2023-01-04T20:27:30.494Z,87.05
2023-01-04T20:30:01.295Z,87.29
2023-01-04T20:32:33.395Z,87.40
2023-01-04T20:35:01.981Z,88.10
2023-01-04T20:37:30.779Z,87.72
2023-01-04T20:39:59.095Z,87.55
2023-01-04T20:42:45.302Z,88.81
2023-01-04T20:45:14.008Z,89.63
2023-01-04T20:47:44.300Z,89.27
2023-01-04T20:50:16.993Z,88.78
2023-01-04T20:52:45.956Z,89.33
2023-01-04T20:55:17.514Z,89.21
2023-01-04T20:57:46.977Z,91.35
2023-01-04T21:00:19.697Z,91.34
2023-01-04T21:02:50.486Z,91.93
2023-01-04T21:05:19.502Z,92.06
2023-01-04T21:07:48.341Z,91.68
2023-01-04T21:10:16.961Z,93.25
2023-01-04T21:12:45.763Z,93.53
2023-01-04T21:15:14.439Z,92.64
2023-01-04T21:17:43.165Z,93.40
2023-01-04T21:20:13.653Z,93.94
2023-01-04T21:22:42.806Z,94.13
2023-01-04T21:25:11.646Z,93.64
2023-01-04T21:27:40.680Z,92.86
2023-01-04T21:30:10.457Z,93.00
2023-01-04T21:32:39.164Z,92.63
2023-01-04T21:35:09.322Z,93.07
2023-01-04T21:37:39.723Z,93.28
2023-01-04T21:40:09.757Z,93.46
2023-01-04T21:43:02.964Z,92.99
2023-01-04T21:45:31.895Z,93.15
2023-01-04T21:48:00.347Z,93.70
2023-01-04T21:50:30.945Z,93.64
2023-01-04T21:53:01.254Z,94.76
2023-01-04T21:55:34.865Z,94.80
2023-01-04T21:58:04.402Z,94.80
2023-01-04T22:00:33.285Z,94.97
2023-01-04T22:03:02.038Z,95.44
2023-01-04T22:05:32.554Z,96.32
2023-01-04T22:08:03.026Z,96.86
2023-01-04T22:10:32.056Z,97.92
2023-01-04T22:13:00.746Z,97.96
2023-01-04T22:15:29.541Z,98.49
2023-01-04T22:17:58.617Z,98.87
2023-01-04T22:20:29.561Z,98.99
2023-01-04T22:22:58.469Z,100.00
2023-01-04T22:25:28.636Z,100.00
2023-01-04T22:27:57.355Z,100.00
2023-01-04T22:30:53.316Z,100.00
2023-01-04T22:33:22.335Z,100.00
2023-01-04T22:35:57.708Z,100.00
2023-01-04T22:38:32.457Z,100.00
2023-01-04T22:41:05.112Z,100.00
2023-01-04T22:43:33.611Z,100.00
2023-01-04T22:46:03.008Z,100.00
2023-01-04T22:48:31.856Z,100.00
2023-01-04T22:51:00.661Z,100.00
2023-01-04T22:53:29.613Z,100.00
2023-01-04T22:56:18.354Z,100.00
2023-01-04T22:58:53.109Z,100.00
2023-01-04T23:01:22.740Z,100.00
2023-01-04T23:03:52.744Z,100.00
2023-01-04T23:06:22.486Z,100.00
2023-01-04T23:08:56.384Z,100.00
2023-01-04T23:11:25.731Z,100.00
2023-01-04T23:13:56.188Z,100.00
2023-01-04T23:16:32.000Z,100.00
2023-01-04T23:19:02.268Z,100.00
2023-01-04T23:21:31.547Z,100.00
2023-01-04T23:24:00.236Z,100.00
2023-01-04T23:26:30.393Z,100.00
2023-01-04T23:29:01.583Z,100.00
2023-01-04T23:31:32.227Z,100.00
2023-01-04T23:34:02.497Z,100.00
2023-01-04T23:36:45.242Z,100.00
2023-01-04T23:39:15.335Z,100.00
2023-01-04T23:41:48.016Z,100.00
2023-01-04T23:44:26.015Z,100.00
2023-01-04T23:46:56.225Z,100.00
2023-01-04T23:49:25.415Z,100.00
2023-01-04T23:51:54.429Z,100.00
2023-01-04T23:54:23.987Z,100.00
2023-01-04T23:56:52.942Z,100.00
2023-01-04T23:59:24.629Z,100.00
